sensor_id;sensor_type;location;lat;lon;timestamp;P1;durP1;ratioP1;P2;durP2;ratioP2
10729;SDS011;5416;59.258;18.128;2023-07-08T00:01:18;3.60;;;3.50;;
10729;SDS011;5416;59.258;18.128;2023-07-08T00:03:47;4.50;;;4.40;;
10729;SDS011;5416;59.258;18.128;2023-07-08T00:06:16;3.83;;;3.72;;
10729;SDS011;5416;59.258;18.128;2023-07-08T00:08:43;3.88;;;3.78;;
10729;SDS011;5416;59.258;18.128;2023-07-08T00:11:11;4.45;;;4.35;;
10729;SDS011;5416;59.258;18.128;2023-07-08T00:13:39;4.13;;;4.03;;
10729;SDS011;5416;59.258;18.128;2023-07-08T00:16:08;4.30;;;4.20;;
10729;SDS011;5416;59.258;18.128;2023-07-08T00:18:37;3.70;;;3.60;;
10729;SDS011;5416;59.258;18.128;2023-07-08T00:21:07;4.10;;;4.00;;
10729;SDS011;5416;59.258;18.128;2023-07-08T00:23:35;4.13;;;4.03;;
10729;SDS011;5416;59.258;18.128;2023-07-08T00:26:04;4.03;;;3.92;;
10729;SDS011;5416;59.258;18.128;2023-07-08T00:28:31;4.32;;;4.22;;
10729;SDS011;5416;59.258;18.128;2023-07-08T00:30:58;3.85;;;3.75;;
10729;SDS011;5416;59.258;18.128;2023-07-08T00:33:26;4.30;;;4.20;;
10729;SDS011;5416;59.258;18.128;2023-07-08T00:35:53;3.92;;;3.83;;
10729;SDS011;5416;59.258;18.128;2023-07-08T00:38:22;4.13;;;4.03;;
10729;SDS011;5416;59.258;18.128;2023-07-08T00:40:52;3.83;;;3.72;;
10729;SDS011;5416;59.258;18.128;2023-07-08T00:43:21;4.00;;;3.90;;
10729;SDS011;5416;59.258;18.128;2023-07-08T00:45:50;3.40;;;3.30;;
10729;SDS011;5416;59.258;18.128;2023-07-08T00:48:20;4.18;;;4.07;;
10729;SDS011;5416;59.258;18.128;2023-07-08T00:50:49;3.75;;;3.65;;
10729;SDS011;5416;59.258;18.128;2023-07-08T00:53:25;3.92;;;3.83;;
10729;SDS011;5416;59.258;18.128;2023-07-08T00:55:52;3.55;;;3.45;;
10729;SDS011;5416;59.258;18.128;2023-07-08T00:58:21;3.85;;;3.75;;
10729;SDS011;5416;59.258;18.128;2023-07-08T01:00:50;4.10;;;4.00;;
10729;SDS011;5416;59.258;18.128;2023-07-08T01:03:18;3.97;;;3.88;;
10729;SDS011;5416;59.258;18.128;2023-07-08T01:05:47;3.92;;;3.83;;
10729;SDS011;5416;59.258;18.128;2023-07-08T01:08:14;4.30;;;4.20;;
10729;SDS011;5416;59.258;18.128;2023-07-08T01:10:44;3.58;;;3.47;;
10729;SDS011;5416;59.258;18.128;2023-07-08T01:13:13;4.00;;;3.90;;
10729;SDS011;5416;59.258;18.128;2023-07-08T01:15:43;3.72;;;3.63;;
10729;SDS011;5416;59.258;18.128;2023-07-08T01:18:12;4.15;;;4.05;;
10729;SDS011;5416;59.258;18.128;2023-07-08T01:20:41;3.60;;;3.50;;
10729;SDS011;5416;59.258;18.128;2023-07-08T01:23:10;4.00;;;3.90;;
10729;SDS011;5416;59.258;18.128;2023-07-08T01:25:38;4.15;;;4.05;;
10729;SDS011;5416;59.258;18.128;2023-07-08T01:28:06;3.85;;;3.75;;
10729;SDS011;5416;59.258;18.128;2023-07-08T01:30:33;3.58;;;3.47;;
10729;SDS011;5416;59.258;18.128;2023-07-08T01:33:02;4.03;;;3.92;;
10729;SDS011;5416;59.258;18.128;2023-07-08T01:35:31;4.10;;;4.00;;
10729;SDS011;5416;59.258;18.128;2023-07-08T01:37:59;3.65;;;3.55;;
10729;SDS011;5416;59.258;18.128;2023-07-08T01:40:29;4.00;;;3.90;;
10729;SDS011;5416;59.258;18.128;2023-07-08T01:42:57;4.03;;;3.92;;
10729;SDS011;5416;59.258;18.128;2023-07-08T01:45:25;4.20;;;4.10;;
10729;SDS011;5416;59.258;18.128;2023-07-08T01:47:56;3.88;;;3.78;;
10729;SDS011;5416;59.258;18.128;2023-07-08T01:50:24;4.50;;;4.40;;
10729;SDS011;5416;59.258;18.128;2023-07-08T01:52:52;3.50;;;3.40;;
10729;SDS011;5416;59.258;18.128;2023-07-08T01:55:21;3.70;;;3.60;;
10729;SDS011;5416;59.258;18.128;2023-07-08T01:57:52;3.47;;;3.38;;
10729;SDS011;5416;59.258;18.128;2023-07-08T02:00:19;3.92;;;3.83;;
10729;SDS011;5416;59.258;18.128;2023-07-08T02:02:47;3.95;;;3.85;;
10729;SDS011;5416;59.258;18.128;2023-07-08T02:05:14;3.55;;;3.45;;
10729;SDS011;5416;59.258;18.128;2023-07-08T02:07:41;4.32;;;4.22;;
10729;SDS011;5416;59.258;18.128;2023-07-08T02:10:09;4.30;;;4.20;;
10729;SDS011;5416;59.258;18.128;2023-07-08T02:12:36;4.17;;;4.07;;
10729;SDS011;5416;59.258;18.128;2023-07-08T02:15:06;4.05;;;3.95;;
10729;SDS011;5416;59.258;18.128;2023-07-08T02:17:33;4.07;;;3.97;;
10729;SDS011;5416;59.258;18.128;2023-07-08T02:20:00;4.05;;;3.95;;
10729;SDS011;5416;59.258;18.128;2023-07-08T02:22:28;3.83;;;3.72;;
10729;SDS011;5416;59.258;18.128;2023-07-08T02:24:55;4.30;;;4.20;;
10729;SDS011;5416;59.258;18.128;2023-07-08T02:27:23;3.63;;;3.53;;
10729;SDS011;5416;59.258;18.128;2023-07-08T02:29:50;3.95;;;3.85;;
10729;SDS011;5416;59.258;18.128;2023-07-08T02:32:19;3.85;;;3.75;;
10729;SDS011;5416;59.258;18.128;2023-07-08T02:34:46;3.75;;;3.65;;
10729;SDS011;5416;59.258;18.128;2023-07-08T02:37:13;4.15;;;4.05;;
10729;SDS011;5416;59.258;18.128;2023-07-08T02:39:40;3.80;;;3.70;;
10729;SDS011;5416;59.258;18.128;2023-07-08T02:42:08;4.20;;;4.10;;
10729;SDS011;5416;59.258;18.128;2023-07-08T02:44:36;3.80;;;3.70;;
10729;SDS011;5416;59.258;18.128;2023-07-08T02:47:03;4.20;;;4.10;;
10729;SDS011;5416;59.258;18.128;2023-07-08T02:49:32;3.92;;;3.83;;
10729;SDS011;5416;59.258;18.128;2023-07-08T02:51:59;3.70;;;3.60;;
10729;SDS011;5416;59.258;18.128;2023-07-08T02:54:26;3.63;;;3.53;;
10729;SDS011;5416;59.258;18.128;2023-07-08T02:56:53;4.30;;;4.20;;
10729;SDS011;5416;59.258;18.128;2023-07-08T02:59:21;3.75;;;3.65;;
10729;SDS011;5416;59.258;18.128;2023-07-08T03:01:48;4.10;;;4.00;;
10729;SDS011;5416;59.258;18.128;2023-07-08T03:04:15;3.95;;;3.85;;
10729;SDS011;5416;59.258;18.128;2023-07-08T03:06:45;3.65;;;3.55;;
10729;SDS011;5416;59.258;18.128;2023-07-08T03:09:12;3.83;;;3.72;;
10729;SDS011;5416;59.258;18.128;2023-07-08T03:11:40;3.80;;;3.70;;
10729;SDS011;5416;59.258;18.128;2023-07-08T03:14:07;4.10;;;4.00;;
10729;SDS011;5416;59.258;18.128;2023-07-08T03:16:34;3.70;;;3.60;;
10729;SDS011;5416;59.258;18.128;2023-07-08T03:19:02;4.10;;;4.00;;
10729;SDS011;5416;59.258;18.128;2023-07-08T03:21:30;3.80;;;3.70;;
10729;SDS011;5416;59.258;18.128;2023-07-08T03:23:59;4.00;;;3.90;;
10729;SDS011;5416;59.258;18.128;2023-07-08T03:26:26;3.85;;;3.75;;
10729;SDS011;5416;59.258;18.128;2023-07-08T03:28:53;4.20;;;4.10;;
10729;SDS011;5416;59.258;18.128;2023-07-08T03:31:21;3.78;;;3.67;;
10729;SDS011;5416;59.258;18.128;2023-07-08T03:33:48;4.60;;;4.50;;
10729;SDS011;5416;59.258;18.128;2023-07-08T03:36:16;4.40;;;4.30;;
10729;SDS011;5416;59.258;18.128;2023-07-08T03:38:49;3.57;;;3.47;;
10729;SDS011;5416;59.258;18.128;2023-07-08T03:41:17;4.35;;;4.25;;
10729;SDS011;5416;59.258;18.128;2023-07-08T03:43:45;4.37;;;4.27;;
10729;SDS011;5416;59.258;18.128;2023-07-08T03:46:12;4.30;;;4.20;;
10729;SDS011;5416;59.258;18.128;2023-07-08T03:48:40;3.95;;;3.85;;
10729;SDS011;5416;59.258;18.128;2023-07-08T03:51:08;4.00;;;3.90;;
10729;SDS011;5416;59.258;18.128;2023-07-08T03:53:36;3.95;;;3.85;;
10729;SDS011;5416;59.258;18.128;2023-07-08T03:56:04;3.90;;;3.80;;
10729;SDS011;5416;59.258;18.128;2023-07-08T03:58:33;4.22;;;4.13;;
10729;SDS011;5416;59.258;18.128;2023-07-08T04:01:00;4.07;;;3.97;;
10729;SDS011;5416;59.258;18.128;2023-07-08T04:03:27;3.90;;;3.80;;
10729;SDS011;5416;59.258;18.128;2023-07-08T04:05:55;3.97;;;3.88;;
10729;SDS011;5416;59.258;18.128;2023-07-08T04:08:22;3.58;;;3.47;;
10729;SDS011;5416;59.258;18.128;2023-07-08T04:10:49;3.47;;;3.38;;
10729;SDS011;5416;59.258;18.128;2023-07-08T04:13:17;4.30;;;4.20;;
10729;SDS011;5416;59.258;18.128;2023-07-08T04:15:45;4.22;;;4.13;;
10729;SDS011;5416;59.258;18.128;2023-07-08T04:18:16;4.10;;;4.00;;
10729;SDS011;5416;59.258;18.128;2023-07-08T04:20:43;3.80;;;3.70;;
10729;SDS011;5416;59.258;18.128;2023-07-08T04:23:17;3.85;;;3.75;;
10729;SDS011;5416;59.258;18.128;2023-07-08T04:25:44;3.88;;;3.78;;
10729;SDS011;5416;59.258;18.128;2023-07-08T04:28:12;4.10;;;4.00;;
10729;SDS011;5416;59.258;18.128;2023-07-08T04:30:39;4.20;;;4.10;;
10729;SDS011;5416;59.258;18.128;2023-07-08T04:33:08;4.20;;;4.10;;
10729;SDS011;5416;59.258;18.128;2023-07-08T04:35:36;3.75;;;3.65;;
10729;SDS011;5416;59.258;18.128;2023-07-08T04:38:04;3.95;;;3.85;;
10729;SDS011;5416;59.258;18.128;2023-07-08T04:40:34;4.10;;;4.00;;
10729;SDS011;5416;59.258;18.128;2023-07-08T04:43:05;4.22;;;4.13;;
10729;SDS011;5416;59.258;18.128;2023-07-08T04:45:32;3.70;;;3.60;;
10729;SDS011;5416;59.258;18.128;2023-07-08T04:48:00;3.90;;;3.80;;
10729;SDS011;5416;59.258;18.128;2023-07-08T04:50:39;3.75;;;3.65;;
10729;SDS011;5416;59.258;18.128;2023-07-08T04:53:06;3.53;;;3.42;;
10729;SDS011;5416;59.258;18.128;2023-07-08T04:55:33;3.80;;;3.70;;
10729;SDS011;5416;59.258;18.128;2023-07-08T04:58:01;3.33;;;3.22;;
10729;SDS011;5416;59.258;18.128;2023-07-08T05:00:28;3.40;;;3.30;;
10729;SDS011;5416;59.258;18.128;2023-07-08T05:02:55;3.50;;;3.40;;
10729;SDS011;5416;59.258;18.128;2023-07-08T05:05:23;3.70;;;3.60;;
10729;SDS011;5416;59.258;18.128;2023-07-08T05:07:52;3.50;;;3.40;;
10729;SDS011;5416;59.258;18.128;2023-07-08T05:10:19;3.50;;;3.40;;
10729;SDS011;5416;59.258;18.128;2023-07-08T05:12:47;3.50;;;3.40;;
10729;SDS011;5416;59.258;18.128;2023-07-08T05:15:15;3.25;;;3.15;;
10729;SDS011;5416;59.258;18.128;2023-07-08T05:17:42;3.10;;;3.00;;
10729;SDS011;5416;59.258;18.128;2023-07-08T05:20:10;3.28;;;3.17;;
10729;SDS011;5416;59.258;18.128;2023-07-08T05:22:38;3.38;;;3.28;;
10729;SDS011;5416;59.258;18.128;2023-07-08T05:25:09;3.07;;;2.97;;
10729;SDS011;5416;59.258;18.128;2023-07-08T05:27:36;3.10;;;3.00;;
10729;SDS011;5416;59.258;18.128;2023-07-08T05:30:04;3.03;;;2.92;;
10729;SDS011;5416;59.258;18.128;2023-07-08T05:32:32;3.28;;;3.17;;
10729;SDS011;5416;59.258;18.128;2023-07-08T05:34:59;3.40;;;3.30;;
10729;SDS011;5416;59.258;18.128;2023-07-08T05:37:27;3.10;;;3.00;;
10729;SDS011;5416;59.258;18.128;2023-07-08T05:39:54;3.10;;;3.00;;
10729;SDS011;5416;59.258;18.128;2023-07-08T05:42:24;3.08;;;2.97;;
10729;SDS011;5416;59.258;18.128;2023-07-08T05:44:52;2.90;;;2.80;;
10729;SDS011;5416;59.258;18.128;2023-07-08T05:47:20;3.00;;;2.90;;
10729;SDS011;5416;59.258;18.128;2023-07-08T05:49:47;2.97;;;2.88;;
10729;SDS011;5416;59.258;18.128;2023-07-08T05:52:14;2.70;;;2.60;;
10729;SDS011;5416;59.258;18.128;2023-07-08T05:54:42;2.95;;;2.85;;
10729;SDS011;5416;59.258;18.128;2023-07-08T05:57:09;2.83;;;2.72;;
10729;SDS011;5416;59.258;18.128;2023-07-08T05:59:38;2.70;;;2.60;;
10729;SDS011;5416;59.258;18.128;2023-07-08T06:02:06;2.63;;;2.53;;
10729;SDS011;5416;59.258;18.128;2023-07-08T06:04:33;2.70;;;2.60;;
10729;SDS011;5416;59.258;18.128;2023-07-08T06:07:01;2.80;;;2.70;;
10729;SDS011;5416;59.258;18.128;2023-07-08T06:09:28;2.55;;;2.45;;
10729;SDS011;5416;59.258;18.128;2023-07-08T06:11:55;2.53;;;2.42;;
10729;SDS011;5416;59.258;18.128;2023-07-08T06:14:22;2.43;;;2.33;;
10729;SDS011;5416;59.258;18.128;2023-07-08T06:16:51;2.80;;;2.70;;
10729;SDS011;5416;59.258;18.128;2023-07-08T06:19:19;2.45;;;2.35;;
10729;SDS011;5416;59.258;18.128;2023-07-08T06:21:47;2.50;;;2.40;;
10729;SDS011;5416;59.258;18.128;2023-07-08T06:24:14;2.50;;;2.40;;
10729;SDS011;5416;59.258;18.128;2023-07-08T06:26:41;2.40;;;2.30;;
10729;SDS011;5416;59.258;18.128;2023-07-08T06:29:08;2.53;;;2.43;;
10729;SDS011;5416;59.258;18.128;2023-07-08T06:31:36;2.58;;;2.47;;
10729;SDS011;5416;59.258;18.128;2023-07-08T06:34:04;2.67;;;2.58;;
10729;SDS011;5416;59.258;18.128;2023-07-08T06:36:31;2.70;;;2.60;;
10729;SDS011;5416;59.258;18.128;2023-07-08T06:38:59;2.47;;;2.38;;
10729;SDS011;5416;59.258;18.128;2023-07-08T06:41:26;2.20;;;2.10;;
10729;SDS011;5416;59.258;18.128;2023-07-08T06:43:53;2.30;;;2.20;;
10729;SDS011;5416;59.258;18.128;2023-07-08T06:46:21;2.17;;;2.10;;
10729;SDS011;5416;59.258;18.128;2023-07-08T06:48:52;2.13;;;2.10;;
10729;SDS011;5416;59.258;18.128;2023-07-08T06:51:21;1.90;;;1.90;;
10729;SDS011;5416;59.258;18.128;2023-07-08T06:53:48;1.90;;;1.90;;
10729;SDS011;5416;59.258;18.128;2023-07-08T06:56:15;2.10;;;2.10;;
10729;SDS011;5416;59.258;18.128;2023-07-08T06:58:42;1.90;;;1.90;;
10729;SDS011;5416;59.258;18.128;2023-07-08T07:01:10;2.00;;;2.00;;
10729;SDS011;5416;59.258;18.128;2023-07-08T07:03:37;1.90;;;1.90;;
10729;SDS011;5416;59.258;18.128;2023-07-08T07:06:04;2.20;;;2.10;;
10729;SDS011;5416;59.258;18.128;2023-07-08T07:08:33;2.20;;;2.10;;
10729;SDS011;5416;59.258;18.128;2023-07-08T07:11:00;2.40;;;2.30;;
10729;SDS011;5416;59.258;18.128;2023-07-08T07:13:27;2.20;;;2.10;;
10729;SDS011;5416;59.258;18.128;2023-07-08T07:15:55;2.20;;;2.10;;
10729;SDS011;5416;59.258;18.128;2023-07-08T07:18:22;2.20;;;2.10;;
10729;SDS011;5416;59.258;18.128;2023-07-08T07:20:50;2.30;;;2.20;;
10729;SDS011;5416;59.258;18.128;2023-07-08T07:23:17;2.20;;;2.10;;
10729;SDS011;5416;59.258;18.128;2023-07-08T07:25:46;1.90;;;1.90;;
10729;SDS011;5416;59.258;18.128;2023-07-08T07:28:13;2.10;;;2.10;;
10729;SDS011;5416;59.258;18.128;2023-07-08T07:30:41;2.00;;;2.00;;
10729;SDS011;5416;59.258;18.128;2023-07-08T07:33:09;2.35;;;2.25;;
10729;SDS011;5416;59.258;18.128;2023-07-08T07:35:40;2.20;;;2.10;;
10729;SDS011;5416;59.258;18.128;2023-07-08T07:38:08;2.70;;;2.60;;
10729;SDS011;5416;59.258;18.128;2023-07-08T07:40:35;2.83;;;2.72;;
10729;SDS011;5416;59.258;18.128;2023-07-08T07:43:04;2.70;;;2.60;;
10729;SDS011;5416;59.258;18.128;2023-07-08T07:45:31;2.80;;;2.70;;
10729;SDS011;5416;59.258;18.128;2023-07-08T07:47:58;2.80;;;2.70;;
10729;SDS011;5416;59.258;18.128;2023-07-08T07:50:26;2.47;;;2.38;;
10729;SDS011;5416;59.258;18.128;2023-07-08T07:52:53;2.40;;;2.30;;
10729;SDS011;5416;59.258;18.128;2023-07-08T07:55:20;3.03;;;2.92;;
10729;SDS011;5416;59.258;18.128;2023-07-08T07:57:47;3.25;;;3.15;;
10729;SDS011;5416;59.258;18.128;2023-07-08T08:00:16;3.10;;;3.00;;
10729;SDS011;5416;59.258;18.128;2023-07-08T08:02:43;3.60;;;3.50;;
10729;SDS011;5416;59.258;18.128;2023-07-08T08:05:11;3.20;;;3.10;;
10729;SDS011;5416;59.258;18.128;2023-07-08T08:07:39;2.90;;;2.80;;
10729;SDS011;5416;59.258;18.128;2023-07-08T08:10:07;2.70;;;2.60;;
10729;SDS011;5416;59.258;18.128;2023-07-08T08:12:34;2.90;;;2.80;;
10729;SDS011;5416;59.258;18.128;2023-07-08T08:15:01;3.10;;;3.00;;
10729;SDS011;5416;59.258;18.128;2023-07-08T08:17:30;3.20;;;3.10;;
10729;SDS011;5416;59.258;18.128;2023-07-08T08:19:57;3.25;;;3.15;;
10729;SDS011;5416;59.258;18.128;2023-07-08T08:22:24;3.40;;;3.30;;
10729;SDS011;5416;59.258;18.128;2023-07-08T08:24:52;3.90;;;3.80;;
10729;SDS011;5416;59.258;18.128;2023-07-08T08:27:19;3.50;;;3.40;;
10729;SDS011;5416;59.258;18.128;2023-07-08T08:29:46;3.47;;;3.37;;
10729;SDS011;5416;59.258;18.128;2023-07-08T08:32:13;2.95;;;2.85;;
10729;SDS011;5416;59.258;18.128;2023-07-08T08:34:42;3.00;;;2.90;;
10729;SDS011;5416;59.258;18.128;2023-07-08T08:37:10;2.80;;;2.70;;
10729;SDS011;5416;59.258;18.128;2023-07-08T08:39:37;2.70;;;2.60;;
10729;SDS011;5416;59.258;18.128;2023-07-08T08:42:06;2.40;;;2.30;;
10729;SDS011;5416;59.258;18.128;2023-07-08T08:44:38;2.38;;;2.28;;
10729;SDS011;5416;59.258;18.128;2023-07-08T08:47:11;2.22;;;2.13;;
10729;SDS011;5416;59.258;18.128;2023-07-08T08:49:43;1.90;;;1.90;;
10729;SDS011;5416;59.258;18.128;2023-07-08T08:52:12;2.00;;;2.00;;
10729;SDS011;5416;59.258;18.128;2023-07-08T08:54:39;2.30;;;2.20;;
10729;SDS011;5416;59.258;18.128;2023-07-08T08:57:08;2.40;;;2.30;;
10729;SDS011;5416;59.258;18.128;2023-07-08T08:59:42;2.22;;;2.13;;
10729;SDS011;5416;59.258;18.128;2023-07-08T09:04:56;2.20;;;2.10;;
10729;SDS011;5416;59.258;18.128;2023-07-08T09:07:25;2.08;;;2.00;;
10729;SDS011;5416;59.258;18.128;2023-07-08T09:09:54;2.00;;;1.90;;
10729;SDS011;5416;59.258;18.128;2023-07-08T09:12:26;2.20;;;2.10;;
10729;SDS011;5416;59.258;18.128;2023-07-08T09:14:54;2.10;;;2.08;;
10729;SDS011;5416;59.258;18.128;2023-07-08T09:17:22;2.20;;;2.10;;
10729;SDS011;5416;59.258;18.128;2023-07-08T09:19:54;2.53;;;2.43;;
10729;SDS011;5416;59.258;18.128;2023-07-08T09:22:28;3.03;;;2.92;;
10729;SDS011;5416;59.258;18.128;2023-07-08T09:24:59;2.63;;;2.53;;
10729;SDS011;5416;59.258;18.128;2023-07-08T09:27:28;2.70;;;2.60;;
10729;SDS011;5416;59.258;18.128;2023-07-08T09:29:55;2.60;;;2.50;;
10729;SDS011;5416;59.258;18.128;2023-07-08T09:32:23;2.30;;;2.20;;
10729;SDS011;5416;59.258;18.128;2023-07-08T09:34:51;2.22;;;2.13;;
10729;SDS011;5416;59.258;18.128;2023-07-08T09:37:20;2.40;;;2.30;;
10729;SDS011;5416;59.258;18.128;2023-07-08T09:39:49;2.70;;;2.60;;
10729;SDS011;5416;59.258;18.128;2023-07-08T09:42:17;2.70;;;2.60;;
10729;SDS011;5416;59.258;18.128;2023-07-08T09:44:45;2.60;;;2.50;;
10729;SDS011;5416;59.258;18.128;2023-07-08T09:47:22;2.40;;;2.30;;
10729;SDS011;5416;59.258;18.128;2023-07-08T09:49:50;2.60;;;2.50;;
10729;SDS011;5416;59.258;18.128;2023-07-08T09:52:19;2.45;;;2.35;;
10729;SDS011;5416;59.258;18.128;2023-07-08T09:54:46;2.20;;;2.10;;
10729;SDS011;5416;59.258;18.128;2023-07-08T09:57:18;2.13;;;2.08;;
10729;SDS011;5416;59.258;18.128;2023-07-08T09:59:48;2.00;;;2.00;;
10729;SDS011;5416;59.258;18.128;2023-07-08T10:05:03;1.80;;;1.80;;
10729;SDS011;5416;59.258;18.128;2023-07-08T10:07:34;1.70;;;1.70;;
10729;SDS011;5416;59.258;18.128;2023-07-08T10:10:02;2.90;;;2.80;;
10729;SDS011;5416;59.258;18.128;2023-07-08T10:12:32;2.50;;;2.40;;
10729;SDS011;5416;59.258;18.128;2023-07-08T10:15:00;2.40;;;2.30;;
10729;SDS011;5416;59.258;18.128;2023-07-08T10:17:30;2.40;;;2.30;;
10729;SDS011;5416;59.258;18.128;2023-07-08T10:19:58;2.15;;;2.10;;
10729;SDS011;5416;59.258;18.128;2023-07-08T10:22:29;2.00;;;2.00;;
10729;SDS011;5416;59.258;18.128;2023-07-08T10:27:51;2.70;;;2.60;;
10729;SDS011;5416;59.258;18.128;2023-07-08T10:30:23;2.97;;;2.88;;
10729;SDS011;5416;59.258;18.128;2023-07-08T10:35:40;2.83;;;2.72;;
10729;SDS011;5416;59.258;18.128;2023-07-08T10:38:22;2.80;;;2.70;;
10729;SDS011;5416;59.258;18.128;2023-07-08T10:40:54;2.78;;;2.67;;
10729;SDS011;5416;59.258;18.128;2023-07-08T10:46:19;3.47;;;3.38;;
10729;SDS011;5416;59.258;18.128;2023-07-08T10:51:36;2.72;;;2.63;;
10729;SDS011;5416;59.258;18.128;2023-07-08T10:54:16;2.50;;;2.40;;
10729;SDS011;5416;59.258;18.128;2023-07-08T10:56:46;2.90;;;2.80;;
10729;SDS011;5416;59.258;18.128;2023-07-08T10:59:21;2.78;;;2.67;;
10729;SDS011;5416;59.258;18.128;2023-07-08T11:04:41;2.40;;;2.30;;
10729;SDS011;5416;59.258;18.128;2023-07-08T11:07:12;2.40;;;2.30;;
10729;SDS011;5416;59.258;18.128;2023-07-08T11:09:44;2.50;;;2.40;;
10729;SDS011;5416;59.258;18.128;2023-07-08T11:12:17;2.20;;;2.10;;
10729;SDS011;5416;59.258;18.128;2023-07-08T11:14:48;2.20;;;2.10;;
10729;SDS011;5416;59.258;18.128;2023-07-08T11:17:19;2.47;;;2.38;;
10729;SDS011;5416;59.258;18.128;2023-07-08T11:19:48;2.50;;;2.40;;
10729;SDS011;5416;59.258;18.128;2023-07-08T11:22:16;2.80;;;2.70;;
10729;SDS011;5416;59.258;18.128;2023-07-08T11:24:45;3.28;;;3.17;;
10729;SDS011;5416;59.258;18.128;2023-07-08T11:27:15;3.35;;;3.25;;
10729;SDS011;5416;59.258;18.128;2023-07-08T11:29:45;3.55;;;3.45;;
10729;SDS011;5416;59.258;18.128;2023-07-08T11:32:14;4.00;;;3.90;;
10729;SDS011;5416;59.258;18.128;2023-07-08T11:34:45;3.60;;;3.50;;
10729;SDS011;5416;59.258;18.128;2023-07-08T11:37:13;3.83;;;3.73;;
10729;SDS011;5416;59.258;18.128;2023-07-08T11:39:42;3.40;;;3.30;;
10729;SDS011;5416;59.258;18.128;2023-07-08T11:42:17;3.55;;;3.45;;
10729;SDS011;5416;59.258;18.128;2023-07-08T11:44:47;3.55;;;3.45;;
10729;SDS011;5416;59.258;18.128;2023-07-08T11:47:18;3.70;;;3.60;;
10729;SDS011;5416;59.258;18.128;2023-07-08T11:49:47;3.80;;;3.70;;
10729;SDS011;5416;59.258;18.128;2023-07-08T11:52:16;3.90;;;3.80;;
10729;SDS011;5416;59.258;18.128;2023-07-08T11:54:45;3.75;;;3.65;;
10729;SDS011;5416;59.258;18.128;2023-07-08T11:57:17;3.40;;;3.30;;
10729;SDS011;5416;59.258;18.128;2023-07-08T11:59:45;3.40;;;3.30;;
10729;SDS011;5416;59.258;18.128;2023-07-08T12:02:14;3.20;;;3.10;;
10729;SDS011;5416;59.258;18.128;2023-07-08T12:04:56;3.45;;;3.35;;
10729;SDS011;5416;59.258;18.128;2023-07-08T12:07:30;2.78;;;2.67;;
10729;SDS011;5416;59.258;18.128;2023-07-08T12:09:59;2.58;;;2.47;;
10729;SDS011;5416;59.258;18.128;2023-07-08T12:12:29;2.60;;;2.50;;
10729;SDS011;5416;59.258;18.128;2023-07-08T12:15:04;2.55;;;2.45;;
10729;SDS011;5416;59.258;18.128;2023-07-08T12:17:32;2.50;;;2.40;;
10729;SDS011;5416;59.258;18.128;2023-07-08T12:20:02;2.40;;;2.30;;
10729;SDS011;5416;59.258;18.128;2023-07-08T12:22:30;2.40;;;2.30;;
10729;SDS011;5416;59.258;18.128;2023-07-08T12:24:59;2.92;;;2.83;;
10729;SDS011;5416;59.258;18.128;2023-07-08T12:27:30;2.90;;;2.80;;
10729;SDS011;5416;59.258;18.128;2023-07-08T12:29:58;3.00;;;2.90;;
10729;SDS011;5416;59.258;18.128;2023-07-08T12:32:25;2.95;;;2.85;;
10729;SDS011;5416;59.258;18.128;2023-07-08T12:34:53;3.50;;;3.40;;
10729;SDS011;5416;59.258;18.128;2023-07-08T12:37:22;3.73;;;3.63;;
10729;SDS011;5416;59.258;18.128;2023-07-08T12:39:56;3.75;;;3.65;;
10729;SDS011;5416;59.258;18.128;2023-07-08T12:42:25;3.83;;;3.72;;
10729;SDS011;5416;59.258;18.128;2023-07-08T12:44:52;4.35;;;4.25;;
10729;SDS011;5416;59.258;18.128;2023-07-08T12:47:19;4.00;;;3.90;;
10729;SDS011;5416;59.258;18.128;2023-07-08T12:49:47;3.60;;;3.50;;
10729;SDS011;5416;59.258;18.128;2023-07-08T12:52:19;3.85;;;3.75;;
10729;SDS011;5416;59.258;18.128;2023-07-08T12:54:48;3.30;;;3.20;;
10729;SDS011;5416;59.258;18.128;2023-07-08T12:57:16;4.45;;;4.35;;
10729;SDS011;5416;59.258;18.128;2023-07-08T12:59:44;4.70;;;4.53;;
10729;SDS011;5416;59.258;18.128;2023-07-08T13:02:14;3.58;;;3.47;;
10729;SDS011;5416;59.258;18.128;2023-07-08T13:04:42;3.78;;;3.67;;
10729;SDS011;5416;59.258;18.128;2023-07-08T13:07:10;3.60;;;3.50;;
10729;SDS011;5416;59.258;18.128;2023-07-08T13:09:43;3.70;;;3.60;;
10729;SDS011;5416;59.258;18.128;2023-07-08T13:12:15;3.75;;;3.65;;
10729;SDS011;5416;59.258;18.128;2023-07-08T13:14:42;3.75;;;3.65;;
10729;SDS011;5416;59.258;18.128;2023-07-08T13:17:11;3.83;;;3.72;;
10729;SDS011;5416;59.258;18.128;2023-07-08T13:19:39;3.72;;;3.63;;
10729;SDS011;5416;59.258;18.128;2023-07-08T13:22:08;4.20;;;4.10;;
10729;SDS011;5416;59.258;18.128;2023-07-08T13:24:36;4.03;;;3.92;;
10729;SDS011;5416;59.258;18.128;2023-07-08T13:27:05;4.43;;;4.33;;
10729;SDS011;5416;59.258;18.128;2023-07-08T13:29:36;4.60;;;4.40;;
10729;SDS011;5416;59.258;18.128;2023-07-08T13:32:04;4.22;;;4.13;;
10729;SDS011;5416;59.258;18.128;2023-07-08T13:34:32;4.68;;;4.47;;
10729;SDS011;5416;59.258;18.128;2023-07-08T13:36:59;4.00;;;3.90;;
10729;SDS011;5416;59.258;18.128;2023-07-08T13:39:27;4.87;;;4.67;;
10729;SDS011;5416;59.258;18.128;2023-07-08T13:41:54;4.00;;;3.90;;
10729;SDS011;5416;59.258;18.128;2023-07-08T13:44:22;4.20;;;4.10;;
10729;SDS011;5416;59.258;18.128;2023-07-08T13:46:52;4.10;;;4.00;;
10729;SDS011;5416;59.258;18.128;2023-07-08T13:49:22;4.13;;;4.03;;
10729;SDS011;5416;59.258;18.128;2023-07-08T13:51:50;4.30;;;4.20;;
10729;SDS011;5416;59.258;18.128;2023-07-08T13:54:20;4.07;;;3.97;;
10729;SDS011;5416;59.258;18.128;2023-07-08T13:56:48;4.22;;;4.13;;
10729;SDS011;5416;59.258;18.128;2023-07-08T13:59:17;4.80;;;4.60;;
10729;SDS011;5416;59.258;18.128;2023-07-08T14:01:45;4.13;;;4.03;;
10729;SDS011;5416;59.258;18.128;2023-07-08T14:04:14;4.00;;;3.90;;
10729;SDS011;5416;59.258;18.128;2023-07-08T14:06:43;4.37;;;4.27;;
10729;SDS011;5416;59.258;18.128;2023-07-08T14:09:12;4.40;;;4.30;;
10729;SDS011;5416;59.258;18.128;2023-07-08T14:11:40;4.00;;;3.90;;
10729;SDS011;5416;59.258;18.128;2023-07-08T14:14:07;4.97;;;4.78;;
10729;SDS011;5416;59.258;18.128;2023-07-08T14:16:36;5.10;;;4.90;;
10729;SDS011;5416;59.258;18.128;2023-07-08T14:19:04;4.28;;;4.18;;
10729;SDS011;5416;59.258;18.128;2023-07-08T14:21:34;4.20;;;4.10;;
10729;SDS011;5416;59.258;18.128;2023-07-08T14:24:04;4.20;;;4.10;;
10729;SDS011;5416;59.258;18.128;2023-07-08T14:26:35;4.25;;;4.15;;
10729;SDS011;5416;59.258;18.128;2023-07-08T14:29:02;4.50;;;4.40;;
10729;SDS011;5416;59.258;18.128;2023-07-08T14:31:30;4.20;;;4.10;;
10729;SDS011;5416;59.258;18.128;2023-07-08T14:33:58;4.30;;;4.20;;
10729;SDS011;5416;59.258;18.128;2023-07-08T14:36:27;4.40;;;4.30;;
10729;SDS011;5416;59.258;18.128;2023-07-08T14:38:56;4.50;;;4.40;;
10729;SDS011;5416;59.258;18.128;2023-07-08T14:41:23;4.10;;;4.00;;
10729;SDS011;5416;59.258;18.128;2023-07-08T14:43:51;4.22;;;4.13;;
10729;SDS011;5416;59.258;18.128;2023-07-08T14:46:18;4.72;;;4.53;;
10729;SDS011;5416;59.258;18.128;2023-07-08T14:48:45;5.00;;;4.80;;
10729;SDS011;5416;59.258;18.128;2023-07-08T14:51:13;4.60;;;4.50;;
10729;SDS011;5416;59.258;18.128;2023-07-08T14:53:40;4.68;;;4.47;;
10729;SDS011;5416;59.258;18.128;2023-07-08T14:56:12;4.75;;;4.55;;
10729;SDS011;5416;59.258;18.128;2023-07-08T14:58:40;4.23;;;4.10;;
10729;SDS011;5416;59.258;18.128;2023-07-08T15:01:12;4.40;;;4.30;;
10729;SDS011;5416;59.258;18.128;2023-07-08T15:03:40;3.93;;;3.83;;
10729;SDS011;5416;59.258;18.128;2023-07-08T15:06:08;4.43;;;4.33;;
10729;SDS011;5416;59.258;18.128;2023-07-08T15:08:36;4.10;;;4.00;;
10729;SDS011;5416;59.258;18.128;2023-07-08T15:11:04;4.40;;;4.30;;
10729;SDS011;5416;59.258;18.128;2023-07-08T15:13:33;4.00;;;3.90;;
10729;SDS011;5416;59.258;18.128;2023-07-08T15:16:01;4.35;;;4.25;;